Terminal Aerodrome Forecast
Issued by NWS

Home | Current Version | Previous Version | Text Only | Print | Product List | Glossary On
Versions: 1 2 3 4 5 6 7 8 9 10 11 12 13 14 15 16
817
FTUS41 KPBZ 041722
TAFBVI
TAF
KBVI 041722Z 0418/0518 11006KT P6SM OVC150
     FM050300 12006KT 3SM -RASN OVC030
     FM050500 15005KT P6SM -RA OVC010
     FM050800 24006KT P6SM VCSH OVC008
     FM051200 28007KT P6SM BKN015
     FM051700 31007KT P6SM BKN025=

USA.gov is the U.S. government's official web portal to all federal, state and local government web resources and services.